Station: Pws C  

  Atmospheric Gas Attenuation - ITU Rec 676-11   ----------------- dB/100km -----------------
Date Time Temp RH % AH g/m3 Dew Point Wind Direction Speed kph Gust kph Barometer mB Rainfall Since 9am 24GHz 47GHz 76GHz 122GHz 134GHz 241GHz
08/05 12:30 12.1 80 8.58 8.8 15 22 1013.1 0.4 19.6 26.4 40.6 106.5 100.3 344.9
08/05 12:00 10.8 86 8.5 8.6 19 20 1013.1 0.4 19.5 26.6 40.9 107.4 100.9 346.9
08/05 11:30 11 87 8.71 8.9 17 20 1013.1 0.2 20.0 26.9 41.7 109.5 103.5 356.1
08/05 11:00 12 76 8.1 8 13 19 1013.1 0 18.6 25.6 38.7 101.4 94.0 322.8
08/05 10:30 11.5 83 8.57 8.8 17 20 1013.1 0 19.6 26.5 40.8 107.2 101.0 347.1
08/05 10:00 11.9 77 8.16 8 13 17 1013.1 0 18.7 25.7 39.0 102.2 94.9 326.1
08/05 09:30 11 82 8.21 8.1 19 22 1013.1 0 18.9 26.1 39.6 103.9 96.7 332.2
08/05 09:00 10.1 85 8.04 7.7 20 28 1013.1 31.6 18.6 26.1 39.4 103.2 95.5 327.9
08/05 08:30 10.1 83 7.85 7.3 17 22 1013.1 31.6 18.2 25.7 38.6 101.2 92.9 318.9
08/05 08:00 9.9 80 7.47 6.6 24 30 1013.1 31.6 17.3 25.2 37.1 97.3 88.1 301.8
08/05 07:30 9.5 85 7.74 7.2 17 19 1013.1 31.2 17.9 25.7 38.4 100.7 92.2 316.1
08/05 07:00 9 85 7.5 6.6 9 13 1013.1 31 17.5 25.5 37.7 98.7 89.5 306.7
08/05 06:30 8.8 86 7.49 6.6 17 24 1013.1 31 17.4 25.5 37.7 98.9 89.6 307.0
08/05 06:00 8.9 86 7.54 6.7 20 26 1013.1 30.8 17.5 25.6 37.9 99.3 90.2 309.0
08/05 05:30 9.3 85 7.64 6.9 13 17 1013.1 30 17.7 25.6 38.1 99.9 91.1 312.2
08/05 05:00 9.4 87 7.87 7.3 13 17 1013.1 29.6 18.2 26.0 39.0 102.3 94.1 322.7
08/05 04:30 9.9 83 7.75 7.2 24 30 1013.1 29.6 17.9 25.6 38.3 100.3 91.8 315.0
08/05 04:00 9.9 81 7.56 6.8 24 30 1013.1 29 17.5 25.3 37.5 98.2 89.3 306.0
08/05 03:30 9.8 84 7.8 7.2 30 44 1013.1 28.4 18.1 25.7 38.5 101.0 92.6 317.7
08/05 03:00 9.7 83 7.65 7 44 54 1013.1 28 17.7 25.5 37.9 99.5 90.7 311.0
08/05 02:30 9.6 88 8.06 7.7 30 39 1013.1 27 18.6 26.2 39.7 104.1 96.4 331.0
08/05 02:00 10.4 80 7.71 7.2 35 52 1013.1 25.4 17.8 25.4 37.9 99.2 90.7 311.1
08/05 01:30 10.3 80 7.66 7 37 44 1013.1 25.2 17.7 25.4 37.7 98.8 90.1 309.1
08/05 01:00 10.2 79 7.52 6.8 35 48 1013.1 24.6 17.4 25.2 37.2 97.4 88.4 303.0
08/05 00:30 10.8 80 7.91 7.6 41 48 1013.1 24.4 18.3 25.6 38.5 100.9 92.9 318.9
08/05 00:00 11 84 8.41 8.4 37 56 1013.1 24.2 19.3 26.4 40.4 106.1 99.4 341.7
07/05 23:30 11.4 83 8.52 8.7 28 30 1013.1 22.4 19.5 26.5 40.7 106.8 100.4 345.2
07/05 23:00 11.1 83 8.36 8.3 39 48 1013.1 22.4 19.2 26.3 40.2 105.4 98.6 338.9
07/05 22:30 11.7 82 8.58 8.7 35 41 1013.1 20.8 19.6 26.5 40.8 107.0 100.8 346.7
07/05 22:00 12 82 8.74 9 44 56 1013.1 20.4 20.0 26.7 41.3 108.4 102.6 353.0
07/05 21:30 11.7 86 9 9.5 48 59 1013.1 20.2 20.6 27.2 42.5 111.7 106.6 366.8
07/05 21:00 12.2 86 9.28 9.9 50 63 1013.1 19.2 21.1 27.5 43.4 114.1 109.7 378.0
07/05 20:30 12.1 87 9.33 10.1 37 48 1013.1 18 21.2 27.6 43.7 114.8 110.6 380.9
07/05 20:00 12.3 85 9.23 9.9 54 59 1013.1 15 21.0 27.4 43.2 113.4 108.9 375.1
07/05 19:30 11.8 89 9.37 10 41 48 1013.1 14.6 21.3 27.8 44.0 115.7 111.6 384.3
07/05 19:00 11.1 92 9.27 9.9 39 50 1013.1 12.8 21.2 27.8 44.0 115.6 111.2 382.9
07/05 18:30 10.5 92 8.92 9.3 35 39 1013.1 10.2 20.4 27.4 42.8 112.5 107.1 368.6
07/05 18:00 10 91 8.55 8.6 35 44 1013.1 7.2 19.7 26.9 41.5 109.1 102.7 352.9
07/05 17:30 9.4 90 8.14 7.8 41 50 1013.1 5.8 18.8 26.4 40.1 105.3 97.8 335.7
07/05 17:00 9.4 84 7.6 6.9 43 52 1013.1 4.4 17.6 25.5 37.9 99.3 90.4 309.9
07/05 16:30 8.8 86 7.49 6.6 32 43 1013.1 2.8 17.4 25.5 37.7 98.9 89.6 307.0
07/05 16:00 8.5 84 7.17 6 33 39 1013.1 1.2 16.8 25.1 36.6 95.7 85.6 293.0
07/05 15:30 8.8 80 6.97 5.6 32 39 1013.1 0.6 16.3 24.7 35.6 93.2 82.6 282.6
07/05 15:00 8.5 82 7 5.6 30 32 1013.1 0.4 16.4 24.8 35.9 93.9 83.3 285.0
07/05 14:30 9.1 72 6.39 4.4 22 28 1013.1 0 15.1 23.7 33.2 86.7 74.7 254.9
07/05 14:00 9.5 67 6.1 3.8 24 28 1013.1 0 14.4 23.1 31.9 83.3 70.6 240.6
07/05 13:30 9.1 70 6.21 3.9 19 22 1013.1 0 14.7 23.4 32.5 84.8 72.4 246.7
07/05 13:00 9 67 5.91 3.3 22 28 1013.1 0 14.0 22.9 31.3 81.8 68.7 233.6
07/05 12:30 8.9 66 5.78 2.9 22 26 1013.1 0 13.8 22.7 30.9 80.6 67.1 228.1
07/05 12:00 9 69 6.09 3.6 24 33 1013.1 0 14.4 23.2 32.0 83.7 70.9 241.7
07/05 11:30 9 75 6.61 4.9 9 11 1013.1 0 15.5 24.0 34.1 89.1 77.7 265.2
07/05 11:00 8.2 80 6.7 5 7 11 1013.1 0 15.8 24.4 34.8 91.0 79.7 272.1
07/05 10:30 7.9 80 6.57 4.6 11 13 1013.1 0 15.5 24.3 34.4 89.9 78.2 267.1
07/05 10:00 8 82 6.78 5.1 7 7 1013.1 0 15.9 24.6 35.2 92.1 80.9 276.5
07/05 09:30 7.5 81 6.49 4.4 9 13 1013.1 0 15.3 24.2 34.2 89.5 77.6 264.7
07/05 09:00 6.6 85 6.42 4.3 6 7 1013.1 26.6 15.2 24.4 34.3 89.8 77.6 264.5
07/05 08:30 5.4 88 6.14 3.6 7 13 1013.1 26.2 14.7 24.2 33.7 88.1 75.0 255.3
07/05 08:00 5.9 86 6.2 3.7 6 11 1013.1 26.2 14.8 24.2 33.8 88.2 75.3 256.5
07/05 07:30 5.3 85 5.9 3 6 9 1013.1 26.2 14.2 23.9 32.8 85.6 71.9 244.3
07/05 07:00 5.2 88 6.06 3.4 6 7 1013.1 26.2 14.5 24.2 33.5 87.5 74.1 252.2
07/05 06:30 5.3 87 6.03 3.3 6 7 1013.1 26 14.4 24.1 33.3 87.1 73.6 250.4
07/05 06:00 4.8 91 6.11 3.4 9 13 1013.1 26 14.6 24.4 33.9 88.5 75.2 255.8
07/05 05:30 4.5 93 6.12 3.4 7 11 1013.1 26 14.7 24.5 34.0 88.9 75.6 257.3
07/05 05:00 4.6 93 6.16 3.5 15 19 1013.1 26 14.7 24.5 34.1 89.3 76.0 258.9
07/05 04:30 4.5 92 6.05 3.3 7 11 1013.1 26 14.5 24.3 33.7 88.2 74.6 254.0
07/05 04:00 5 90 6.12 3.5 15 17 1013.1 26 14.6 24.3 33.8 88.4 75.1 255.7
07/05 03:30 5.4 86 6 3.2 15 28 1013.1 25.4 14.4 24.0 33.1 86.6 73.1 248.7
07/05 03:00 5.2 88 6.06 3.4 7 11 1013.1 24.4 14.5 24.2 33.5 87.5 74.1 252.2
07/05 02:30 5.5 89 6.25 3.8 6 7 1013.1 23 14.9 24.4 34.1 89.2 76.4 260.2
07/05 02:00 5.3 87 6.03 3.4 9 13 1013.1 21.8 14.4 24.1 33.3 87.1 73.6 250.4
07/05 01:30 5.7 86 6.12 3.6 22 26 1013.1 21.6 14.6 24.1 33.5 87.6 74.4 253.4
07/05 01:00 6.8 85 6.5 4.5 28 33 1013.1 21.4 15.4 24.4 34.6 90.5 78.4 267.6
07/05 00:30 6.6 87 6.57 4.6 11 17 1013.1 21.2 15.5 24.6 35.0 91.5 79.6 271.6
07/05 00:00 7 85 6.59 4.6 11 24 1013.1 20.8 15.6 24.5 34.9 91.2 79.4 271.1
06/05 23:30 6.6 93 7.02 5.6 11 11 1013.1 20.4 16.5 25.4 36.8 96.4 85.7 293.0
06/05 23:00 6.8 92 7.04 5.6 9 11 1013.1 20.4 16.6 25.3 36.8 96.4 85.7 293.2
06/05 22:30 6.6 91 6.87 5.2 19 22 1013.1 20.4 16.2 25.1 36.2 94.8 83.6 285.8
06/05 22:00 6.8 95 7.27 6 7 9 1013.1 20 17.1 25.7 37.8 99.0 88.9 304.3
06/05 21:30 7.2 95 7.46 6.4 4 4 1013.1 19.2 17.4 25.9 38.4 100.6 91.1 311.9
06/05 21:00 7.2 94 7.38 6.3 9 11 1013.1 18.6 17.3 25.8 38.0 99.7 90.0 308.1
06/05 20:30 7.3 95 7.51 6.5 7 9 1013.1 18.4 17.5 26.0 38.5 101.0 91.6 314.0
06/05 20:00 7.3 95 7.51 6.5 9 11 1013.1 18.2 17.5 26.0 38.5 101.0 91.6 314.0
06/05 19:30 7.1 94 7.33 6.2 13 17 1013.1 17.6 17.2 25.7 37.9 99.2 89.4 306.0
06/05 19:00 7.2 94 7.38 6.3 13 17 1013.1 15.6 17.3 25.8 38.0 99.7 90.0 308.1
06/05 18:30 7.4 93 7.4 6.3 9 11 1013.1 14.6 17.3 25.8 38.0 99.6 90.0 308.2
06/05 18:00 7.5 92 7.37 6.3 7 9 1013.1 13.4 17.2 25.7 37.8 99.2 89.5 306.4
06/05 17:30 7.9 90 7.4 6.4 7 9 1013.1 11.2 17.3 25.6 37.8 99.0 89.4 306.3
06/05 17:00 8.1 90 7.49 6.6 11 13 1013.1 10.8 17.5 25.7 38.1 99.8 90.4 309.8
06/05 16:30 8.2 90 7.54 6.7 9 11 1013.1 10.4 17.6 25.8 38.2 100.2 91.0 311.8
06/05 16:00 8.1 90 7.49 6.6 11 13 1013.1 10.2 17.5 25.7 38.1 99.8 90.4 309.8
06/05 15:30 8.2 89 7.46 6.5 11 13 1013.1 8.8 17.4 25.6 37.9 99.3 89.9 308.0
06/05 15:00 8.5 84 7.17 6 13 15 1013.1 7.6 16.8 25.1 36.6 95.7 85.6 293.0
06/05 14:30 8.7 86 7.44 6.5 11 13 1013.1 7 17.3 25.5 37.6 98.4 89.0 305.0
06/05 14:00 8.9 84 7.36 6.3 19 24 1013.1 6.4 17.2 25.3 37.1 97.3 87.7 300.5
06/05 13:30 9.4 83 7.51 6.7 22 24 1013.1 5.6 17.5 25.4 37.5 98.3 89.2 305.6
06/05 13:00 10 80 7.52 6.8 15 20 1013.1 5 17.5 25.2 37.3 97.7 88.6 303.8
06/05 12:30 10.3 79 7.57 6.8 19 24 1013.1 5 17.5 25.2 37.3 97.9 88.9 304.9
06/05 12:00 10.3 83 7.95 7.5 19 28 1013.1 4.8 18.4 25.8 38.9 102.0 94.1 322.8
06/05 11:30 10.7 83 8.15 8 37 44 1013.1 3.8 18.8 26.1 39.5 103.7 96.3 330.6
06/05 11:00 11.3 84 8.57 8.7 35 41 1013.1 3.4 19.6 26.6 40.9 107.5 101.2 348.0

Last Refresh: 08-May-2026 12:10:14

Bureau of Meteorology